Main page
METAR-TAF:

METAR-TAF

Airports :

Odessa, Ukraine

Odessa International Airport

latitude: 46-26N, longitude: 030-46E, elevation: 42 m

Current weather observation

The report was made 25 minutes ago, at 07:00 UTC
Wind 8 kt from the North/Northeast
Temperature 17°C
Humidity 42%
Pressure 1014 hPa
Visibility 10 km or more
no clouds below 1500 m and no cumulonimbus

METAR: UKOO 230700Z 02004MPS CAVOK 17/04 Q1014 R34/090060 NOSIG

Time: 10:25 (07:25 UTC)

Forecast

The report was made 2 hours and 17 minutes ago, at 05:08 UTC
Forecast valid from 23 at 06 UTC to 24 at 06 UTC
Wind 12 kt from the North with gusts up to 23 kt
Visibility: 6000 m
Broken clouds at a height of 1200 ft
Scattered clouds at a height of 2000 ft, Cumulonimbus.
Temporary
from 23 at 06 UTC to 23 at 10 UTC
Wind 6 kt from the West/Northwest
Becoming
from 23 at 10 UTC to 23 at 12 UTC
Wind 6 kt from the South

TAF: UKOO 230508Z 2306/2406 35006G12MPS 6000 BKN012 SCT020CB TEMPO 2306/2310 30003MPS BECMG 2310/2312 18003MPS

Weather observations and forecasts of more than 4000 airports (METAR and TAF reports).

The available stations are represented by yellow and red dots on the map.

Hover mouse over dot to see the name of the station.

Then click to see weather observations and forecasts.

To change the map : click on the green buttons with a black cross to zoom in, on the green button with a dash to zoom out, or on the green arrows for adjacent maps.


METAR-TAF: